Time;durP1;ratioP1;P1;durP2;ratioP2;P2;SDS_P1;SDS_P2;PMS_P1;PMS_P2;Temp;Humidity;BMP_temperature;BMP_pressure;BME280_temperature;BME280_humidity;BME280_pressure;Samples;Min_cycle;Max_cycle;Signal;HPM_P1;HPM_P2
2022/01/02 00:00:22;;;;;;;18.30;10.77;;;;;;;6.11;69.79;99523.16;5091340;28;20036;-50
2022/01/02 00:03:08;;;;;;;12.32;9.32;;;;;;;6.22;69.70;99520.31;5092536;28;20016;-51
2022/01/02 00:05:40;;;;;;;13.38;9.95;;;;;;;6.39;70.25;99534.28;5092449;28;20409;-50
2022/01/02 00:08:10;;;;;;;14.15;9.38;;;;;;;6.53;68.61;99535.53;5090237;28;20032;-50
2022/01/02 00:10:49;;;;;;;14.98;10.60;;;;;;;6.66;68.44;99535.94;5091118;28;20024;-50
2022/01/02 00:13:23;;;;;;;15.02;11.15;;;;;;;6.70;68.41;99532.06;5091097;28;20387;-50
2022/01/02 00:15:51;;;;;;;13.80;10.48;;;;;;;6.90;67.08;99522.22;5092327;28;20169;-50
2022/01/02 00:18:18;;;;;;;17.92;8.85;;;;;;;6.90;66.70;99530.03;5090996;28;20176;-50
2022/01/02 00:20:48;;;;;;;15.82;9.77;;;;;;;6.80;66.92;99524.94;5090918;28;20031;-50
2022/01/02 00:23:20;;;;;;;14.65;9.82;;;;;;;6.77;67.45;99524.41;5092251;28;20035;-49
2022/01/02 00:25:51;;;;;;;36.53;25.25;;;;;;;6.68;66.58;99530.56;5092117;28;20027;-49
2022/01/02 00:28:17;;;;;;;12.65;9.43;;;;;;;6.58;67.11;99534.09;5092163;28;20413;-50
2022/01/02 00:30:47;;;;;;;13.15;8.60;;;;;;;6.52;66.86;99526.06;5090789;28;20120;-49
2022/01/02 00:33:12;;;;;;;16.02;8.63;;;;;;;6.49;66.52;99514.16;5092114;28;20474;-49
2022/01/02 00:35:38;;;;;;;17.35;9.02;;;;;;;6.42;67.02;99513.13;5090695;28;20027;-50
2022/01/02 00:38:06;;;;;;;16.02;9.82;;;;;;;6.48;66.84;99511.69;5090400;28;20036;-49
2022/01/02 00:40:40;;;;;;;17.65;12.85;;;;;;;6.50;66.78;99510.59;5092104;28;20035;-49
2022/01/02 00:43:13;;;;;;;12.73;10.07;;;;;;;6.45;66.69;99502.38;5092069;28;20051;-50
2022/01/02 00:45:46;;;;;;;19.00;12.35;;;;;;;6.32;67.24;99513.22;5090630;28;20024;-50
2022/01/02 00:48:22;;;;;;;14.38;9.63;;;;;;;6.18;67.86;99508.56;5091997;28;20113;-50
2022/01/02 00:50:52;;;;;;;;;;;;;;;6.12;67.69;99503.97;5092396;28;20443;-50
2022/01/02 00:53:20;;;;;;;19.30;10.60;;;;;;;6.22;67.30;99507.28;5091877;28;19907;-50
2022/01/02 00:55:56;;;;;;;14.98;9.45;;;;;;;6.30;67.72;99504.75;5090770;28;20511;-50
2022/01/02 00:58:45;;;;;;;12.90;8.55;;;;;;;6.35;67.33;99496.47;5091916;28;20111;-50
2022/01/02 01:01:15;;;;;;;15.50;10.57;;;;;;;6.26;67.48;99502.56;5091805;28;20538;-50
2022/01/02 01:03:42;;;;;;;18.00;11.48;;;;;;;6.11;67.67;99495.31;5091816;28;20107;-50
2022/01/02 01:06:10;;;;;;;15.32;8.20;;;;;;;5.81;68.20;99499.09;5091681;28;20150;-50
2022/01/02 01:08:40;;;;;;;16.45;10.48;;;;;;;5.62;68.51;99510.50;5091694;28;20150;-50
2022/01/02 01:11:11;;;;;;;18.48;9.50;;;;;;;5.55;69.37;99509.44;5090379;28;20055;-50
2022/01/02 01:13:37;;;;;;;19.48;12.10;;;;;;;5.54;69.55;99516.44;5091772;28;20431;-50
2022/01/02 01:16:03;;;;;;;17.48;9.70;;;;;;;5.61;69.24;99524.47;5090300;28;20028;-49
2022/01/02 01:18:30;;;;;;;15.63;9.27;;;;;;;5.87;69.71;99515.91;5091648;28;20027;-49
2022/01/02 01:20:56;;;;;;;21.45;11.52;;;;;;;6.16;68.39;99511.31;5095143;28;20028;-50
2022/01/02 01:23:22;;;;;;;17.65;11.40;;;;;;;6.11;67.97;99521.38;5095568;28;20031;-50
2022/01/02 01:25:51;;;;;;;23.92;11.20;;;;;;;6.04;68.54;99519.50;5094160;28;20020;-50
2022/01/02 01:28:17;;;;;;;22.25;13.65;;;;;;;5.99;68.33;99512.16;5094179;28;20410;-49
2022/01/02 01:30:44;;;;;;;15.45;11.02;;;;;;;6.22;68.76;99506.44;5094114;28;20355;-50
2022/01/02 01:33:10;;;;;;;20.98;12.70;;;;;;;6.46;67.96;99514.47;5095427;28;20028;-50
2022/01/02 01:35:37;;;;;;;11.90;8.55;;;;;;;6.47;66.61;99507.47;5095348;28;20421;-50
2022/01/02 01:38:03;;;;;;;14.93;8.73;;;;;;;6.26;66.16;99494.75;5095030;28;20036;-49
2022/01/02 01:40:44;;;;;;;16.58;12.20;;;;;;;5.96;67.42;99500.25;5095366;28;20032;-50
2022/01/02 01:43:13;;;;;;;17.30;9.52;;;;;;;5.71;68.26;99498.34;5095271;28;20111;-50
2022/01/02 01:45:39;;;;;;;15.52;11.40;;;;;;;5.57;68.94;99491.88;5095104;28;20441;-50
2022/01/02 01:48:07;;;;;;;12.80;10.05;;;;;;;5.53;69.29;99486.16;5095127;28;20030;-50
2022/01/02 01:50:39;;;;;;;21.60;14.48;;;;;;;5.52;68.82;99492.31;5095048;28;20028;-49
2022/01/02 01:53:07;;;;;;;15.68;11.30;;;;;;;5.38;69.60;99480.63;5093705;28;20020;-50
2022/01/02 01:55:34;;;;;;;16.92;9.95;;;;;;;5.32;69.59;99480.41;5095023;28;20063;-50
2022/01/02 01:58:02;;;;;;;18.52;13.45;;;;;;;5.19;70.18;99484.19;5094994;28;20427;-50
2022/01/02 02:00:28;;;;;;;15.88;10.75;;;;;;;5.14;70.16;99490.78;5093511;28;20490;-50
2022/01/02 02:02:56;;;;;;;13.10;9.40;;;;;;;5.23;70.72;99484.69;5094847;28;20024;-49
2022/01/02 02:05:22;;;;;;;14.70;10.18;;;;;;;5.31;70.53;99487.41;5094782;28;20020;-49
2022/01/02 02:07:48;;;;;;;12.18;9.15;;;;;;;5.34;70.63;99481.91;5094691;28;20023;-49
2022/01/02 02:10:23;;;;;;;37.03;13.13;;;;;;;5.45;70.52;99480.03;5093310;28;20059;-49
2022/01/02 02:12:51;;;;;;;15.63;9.77;;;;;;;5.57;70.67;99471.88;5094783;28;20024;-50
2022/01/02 02:15:18;;;;;;;13.68;9.75;;;;;;;5.80;69.48;99461.81;5094567;28;20398;-49
2022/01/02 02:17:46;;;;;;;14.48;8.05;;;;;;;5.93;70.07;99478.84;5094548;28;20030;-49
2022/01/02 02:20:12;;;;;;;15.07;8.27;;;;;;;6.09;69.61;99467.78;5094479;28;20028;-50
2022/01/02 02:22:40;;;;;;;13.48;7.60;;;;;;;6.29;69.26;99463.19;5094488;28;20532;-50
2022/01/02 02:25:07;;;;;;;16.08;8.05;;;;;;;6.43;68.05;99456.59;5094429;28;20024;-49
2022/01/02 02:27:34;;;;;;;13.63;8.70;;;;;;;6.35;68.21;99457.34;5094277;28;20024;-50
2022/01/02 02:29:59;;;;;;;11.75;7.63;;;;;;;6.29;67.61;99461.38;5094358;28;20016;-50
2022/01/02 02:32:26;;;;;;;13.10;8.50;;;;;;;6.14;67.76;99460.31;5093204;28;20359;-50
2022/01/02 02:34:51;;;;;;;12.98;7.70;;;;;;;6.09;68.28;99473.78;5094245;28;20028;-50
2022/01/02 02:37:17;;;;;;;15.38;8.60;;;;;;;6.14;68.72;99474.16;5094160;28;20023;-49
2022/01/02 02:39:43;;;;;;;18.10;8.55;;;;;;;6.45;68.16;99481.53;5092574;28;20614;-50
2022/01/02 02:42:28;;;;;;;12.20;7.18;;;;;;;6.59;67.22;99473.13;5094074;28;20020;-50
2022/01/02 02:48:33;;;;;;;25.70;10.00;;;;;;;6.54;67.49;99487.59;5092804;28;20071;-49
2022/01/02 02:50:24;;;;;;;12.52;9.27;;;;;;;6.50;66.45;99481.91;5093926;28;20063;-50
2022/01/02 02:52:49;;;;;;;10.32;7.65;;;;;;;6.48;67.07;99465.59;5093923;28;20490;-50
2022/01/02 02:55:15;;;;;;;12.50;8.38;;;;;;;6.37;66.10;99452.81;5092517;28;20035;-50
2022/01/02 02:57:41;;;;;;;13.75;8.00;;;;;;;6.18;66.06;99456.44;5093719;28;20024;-49
2022/01/02 03:00:07;;;;;;;11.48;7.82;;;;;;;5.90;67.30;99450.50;5093725;28;20440;-50
2022/01/02 03:02:32;;;;;;;12.52;7.80;;;;;;;5.73;67.99;99446.94;5093757;28;20099;-49
2022/01/02 03:04:58;;;;;;;11.55;6.80;;;;;;;5.70;68.05;99431.63;5093667;28;20115;-50
2022/01/02 03:07:25;;;;;;;16.05;8.68;;;;;;;5.68;68.91;99416.16;5093501;28;20020;-49
2022/01/02 03:09:52;;;;;;;13.68;8.52;;;;;;;5.83;69.14;99406.00;5093580;28;20031;-49
2022/01/02 03:12:19;;;;;;;12.43;8.63;;;;;;;5.94;68.59;99415.38;5093489;28;20016;-50
2022/01/02 03:14:44;;;;;;;10.98;8.15;;;;;;;5.96;68.95;99429.09;5093411;28;20020;-50
2022/01/02 03:17:10;;;;;;;12.15;8.15;;;;;;;6.01;68.27;99411.19;5093412;28;20046;-50
2022/01/02 03:19:36;;;;;;;12.60;7.78;;;;;;;6.16;68.88;99394.03;5093327;28;20023;-50
2022/01/02 03:22:02;;;;;;;13.85;7.65;;;;;;;6.48;68.25;99400.41;5092010;28;20035;-50
2022/01/02 03:24:28;;;;;;;12.48;8.75;;;;;;;6.86;67.72;99407.84;5093219;28;20106;-50
2022/01/02 03:26:54;;;;;;;11.48;6.68;;;;;;;7.13;66.24;99414.63;5093109;28;20107;-51
2022/01/02 03:29:19;;;;;;;10.75;6.38;;;;;;;7.13;65.54;99401.59;5091869;28;20024;-50
2022/01/02 03:31:45;;;;;;;11.07;7.00;;;;;;;7.07;66.37;99397.81;5091818;28;20024;-50
2022/01/02 03:34:11;;;;;;;9.63;5.95;;;;;;;7.35;65.94;99390.50;5093102;28;20458;-50
2022/01/02 03:36:36;;;;;;;10.15;6.85;;;;;;;7.61;64.57;99389.56;5093031;28;20028;-50
2022/01/02 03:39:03;;;;;;;10.15;7.40;;;;;;;7.65;63.87;99390.84;5092757;28;20512;-50
2022/01/02 03:41:29;;;;;;;9.93;5.90;;;;;;;7.51;64.33;99389.72;5092937;28;20020;-50
2022/01/02 03:43:55;;;;;;;12.98;9.05;;;;;;;7.43;63.88;99386.28;5092724;28;20024;-50
2022/01/02 03:46:20;;;;;;;10.35;6.90;;;;;;;7.38;64.55;99382.38;5092771;28;20061;-51
2022/01/02 03:48:46;;;;;;;10.60;7.35;;;;;;;7.31;64.44;99386.59;5092778;28;20077;-50
2022/01/02 03:51:12;;;;;;;8.45;6.35;;;;;;;7.05;65.11;99415.44;5092798;28;20020;-50
2022/01/02 03:53:38;;;;;;;12.98;7.70;;;;;;;7.20;64.56;99433.88;5092701;28;20024;-50
2022/01/02 03:56:03;;;;;;;11.75;7.38;;;;;;;7.08;63.51;99440.38;5092653;28;20031;-50
2022/01/02 03:58:29;;;;;;;26.85;21.75;;;;;;;6.87;63.81;99428.59;5091363;28;20107;-50
2022/01/02 04:00:55;;;;;;;13.40;9.38;;;;;;;6.71;64.42;99441.56;5092853;28;20486;-50
2022/01/02 04:03:20;;;;;;;11.55;7.63;;;;;;;6.61;65.12;99454.72;5092549;28;20023;-50
2022/01/02 04:05:46;;;;;;;21.33;17.40;;;;;;;6.81;65.56;99452.69;5091090;28;20028;-50
2022/01/02 04:08:12;;;;;;;9.88;7.10;;;;;;;7.13;64.86;99469.44;5092458;28;20093;-50
2022/01/02 04:10:38;;;;;;;11.90;8.32;;;;;;;7.15;64.09;99465.69;5091076;28;20052;-50
2022/01/02 04:13:04;;;;;;;17.27;8.90;;;;;;;7.08;64.13;99463.88;5092433;28;20055;-50
2022/01/02 04:15:30;;;;;;;16.77;8.25;;;;;;;7.25;64.94;99459.53;5092359;28;20059;-50
2022/01/02 04:17:56;;;;;;;10.23;7.78;;;;;;;7.40;63.67;99461.38;5092317;28;20032;-50
2022/01/02 04:20:21;;;;;;;10.75;7.63;;;;;;;7.47;64.22;99473.78;5092285;28;20492;-50
2022/01/02 04:22:47;;;;;;;11.88;8.27;;;;;;;7.45;64.14;99475.72;5092190;28;20067;-50
2022/01/02 04:25:13;;;;;;;12.25;8.05;;;;;;;7.43;63.99;99475.06;5092219;28;20485;-50
2022/01/02 04:27:39;;;;;;;17.55;11.38;;;;;;;7.30;63.63;99450.22;5090755;28;20090;-50
2022/01/02 04:30:08;;;;;;;11.48;8.35;;;;;;;7.19;63.09;99445.31;5092101;28;20023;-49
2022/01/02 04:32:34;;;;;;;18.73;10.23;;;;;;;7.03;64.24;99435.66;5092087;28;20031;-50
2022/01/02 04:34:59;;;;;;;18.75;9.65;;;;;;;6.95;64.14;99425.19;5090742;28;20023;-50
2022/01/02 04:37:25;;;;;;;12.30;9.27;;;;;;;6.90;64.20;99415.25;5092049;28;20111;-50
2022/01/02 04:39:51;;;;;;;12.05;9.68;;;;;;;6.63;64.59;99413.66;5093160;28;20040;-50
2022/01/02 04:42:17;;;;;;;15.38;10.77;;;;;;;6.37;65.84;99411.91;5091963;28;20081;-50
2022/01/02 04:44:42;;;;;;;11.00;8.90;;;;;;;6.22;66.69;99413.47;5091919;28;20065;-50
2022/01/02 04:47:08;;;;;;;15.38;7.55;;;;;;;6.23;68.34;99417.69;5090488;28;20068;-50
2022/01/02 04:49:34;;;;;;;18.48;10.57;;;;;;;6.65;68.51;99405.69;5091905;28;20089;-50
2022/01/02 04:52:00;;;;;;;7.75;6.80;;;;;;;7.46;68.73;99396.41;5091851;28;20016;-50
2022/01/02 04:54:26;;;;;;;8.15;5.80;;;;;;;8.27;66.92;99386.81;5094711;28;20023;-50
2022/01/02 04:56:52;;;;;;;7.03;6.03;;;;;;;8.82;64.59;99393.03;5098608;28;20107;-51
2022/01/02 04:59:18;;;;;;;8.85;5.93;;;;;;;8.92;63.85;99378.75;5098592;28;20095;-50
2022/01/02 05:01:44;;;;;;;8.77;5.45;;;;;;;9.16;64.01;99385.63;5097263;28;20451;-50
2022/01/02 05:04:11;;;;;;;7.78;5.05;;;;;;;9.52;62.45;99381.63;5098525;28;20024;-50
2022/01/02 05:06:38;;;;;;;6.97;5.07;;;;;;;9.72;61.28;99385.38;5097123;28;20052;-50
2022/01/02 05:09:04;;;;;;;28.70;25.00;;;;;;;9.83;60.43;99375.44;5098442;28;20055;-50
2022/01/02 05:11:30;;;;;;;10.30;7.43;;;;;;;9.86;60.60;99381.16;5098450;28;20020;-50
2022/01/02 05:13:56;;;;;;;7.60;5.40;;;;;;;10.00;59.68;99371.69;5098428;28;20103;-50
2022/01/02 05:16:22;;;;;;;8.27;5.18;;;;;;;9.93;59.74;99383.88;5098389;28;20206;-50
2022/01/02 05:18:47;;;;;;;10.55;5.20;;;;;;;9.89;59.60;99374.75;5097087;28;20464;-50
2022/01/02 05:21:13;;;;;;;10.07;6.50;;;;;;;9.91;59.28;99359.63;5098390;28;20429;-51
2022/01/02 05:23:39;;;;;;;6.68;4.75;;;;;;;9.85;59.26;99353.31;5098401;28;20069;-50
2022/01/02 05:26:05;;;;;;;6.80;5.20;;;;;;;9.78;59.62;99358.44;5096927;28;20035;-50
2022/01/02 05:28:31;;;;;;;8.95;5.55;;;;;;;9.71;60.03;99360.13;5098377;28;20028;-50
2022/01/02 05:30:57;;;;;;;18.77;14.45;;;;;;;9.77;60.23;99361.25;5096952;28;20017;-50
2022/01/02 05:33:22;;;;;;;9.88;5.78;;;;;;;9.96;59.81;99359.91;5098253;28;20439;-51
2022/01/02 05:35:48;;;;;;;5.40;4.43;;;;;;;10.09;58.57;99370.59;5098307;28;20027;-51
2022/01/02 05:38:15;;;;;;;11.10;5.60;;;;;;;10.06;58.89;99384.09;5098210;28;20103;-50
2022/01/02 05:40:41;;;;;;;7.72;4.97;;;;;;;10.11;58.57;99389.59;5098022;28;20035;-51
2022/01/02 05:43:07;;;;;;;13.35;6.20;;;;;;;9.95;58.93;99395.81;5098218;28;20024;-51
2022/01/02 05:45:33;;;;;;;5.97;4.47;;;;;;;9.81;58.76;99414.94;5098158;28;20137;-50
2022/01/02 05:48:01;;;;;;;9.93;5.35;;;;;;;9.48;59.50;99417.03;5098046;28;20062;-50
2022/01/02 05:50:27;;;;;;;6.35;4.30;;;;;;;9.28;59.71;99409.63;5098143;28;20024;-50
2022/01/02 05:52:53;;;;;;;7.95;5.05;;;;;;;9.11;60.08;99413.31;5096788;28;20135;-50
2022/01/02 05:55:19;;;;;;;7.78;4.72;;;;;;;8.83;60.60;99410.34;5097034;28;20034;-50
2022/01/02 05:57:45;;;;;;;5.60;4.40;;;;;;;8.65;61.09;99414.03;5096717;28;20151;-50
2022/01/02 06:00:11;;;;;;;9.20;5.65;;;;;;;8.54;61.73;99417.03;5097983;28;20107;-50
2022/01/02 06:02:37;;;;;;;5.88;3.92;;;;;;;8.66;62.69;99415.66;5096723;28;20103;-50
2022/01/02 06:05:04;;;;;;;11.50;7.05;;;;;;;8.84;62.27;99406.78;5097584;28;20068;-50
2022/01/02 06:07:33;;;;;;;7.88;4.13;;;;;;;9.34;61.67;99408.91;5094734;28;20063;-50
2022/01/02 06:10:00;;;;;;;5.50;2.72;;;;;;;9.65;59.95;99426.38;5093435;28;20509;-50
2022/01/02 06:12:26;;;;;;;8.63;5.40;;;;;;;9.70;59.86;99431.09;5094724;28;20042;-50
2022/01/02 06:14:52;;;;;;;4.60;3.40;;;;;;;9.77;59.07;99435.44;5094704;28;20476;-50
2022/01/02 06:17:17;;;;;;;10.23;3.85;;;;;;;9.60;59.33;99431.34;5093307;28;20105;-50
2022/01/02 06:19:43;;;;;;;6.32;3.97;;;;;;;9.52;60.10;99436.66;5094562;28;20187;-50
2022/01/02 06:22:09;;;;;;;7.10;4.57;;;;;;;9.43;60.49;99432.44;5094479;28;20025;-51
2022/01/02 06:24:35;;;;;;;6.95;4.85;;;;;;;9.26;60.31;99432.56;5093166;28;20397;-50
2022/01/02 06:27:01;;;;;;;6.70;5.15;;;;;;;9.03;60.37;99436.94;5094299;28;20103;-50
2022/01/02 06:29:26;;;;;;;6.78;3.85;;;;;;;8.85;61.17;99430.13;5094371;28;20028;-51
2022/01/02 06:31:53;;;;;;;5.80;3.78;;;;;;;8.88;61.28;99423.75;5094314;28;20398;-50
2022/01/02 06:34:19;;;;;;;5.28;4.50;;;;;;;8.90;61.88;99427.84;5094288;28;20021;-50
2022/01/02 06:36:45;;;;;;;5.80;3.83;;;;;;;8.98;61.92;99430.41;5093150;28;20039;-50
2022/01/02 06:39:10;;;;;;;7.03;5.20;;;;;;;9.06;61.51;99437.41;5092673;28;20024;-50
2022/01/02 06:41:36;;;;;;;5.32;3.75;;;;;;;9.23;60.93;99435.50;5094103;28;20020;-50
2022/01/02 06:44:02;;;;;;;7.22;5.13;;;;;;;9.27;60.52;99436.78;5094066;28;20027;-50
2022/01/02 06:46:28;;;;;;;7.10;4.72;;;;;;;9.27;61.20;99433.34;5093915;28;20026;-50
2022/01/02 06:48:54;;;;;;;7.47;5.18;;;;;;;9.31;60.87;99424.97;5092654;28;20024;-50
2022/01/02 06:51:20;;;;;;;5.95;4.32;;;;;;;9.52;60.39;99416.50;5093866;28;20485;-50
2022/01/02 06:53:46;;;;;;;6.30;3.88;;;;;;;9.61;59.73;99409.38;5092651;28;20024;-50
2022/01/02 06:56:12;;;;;;;6.53;4.38;;;;;;;9.60;59.74;99418.25;5093817;28;20028;-50
2022/01/02 06:58:39;;;;;;;6.55;4.40;;;;;;;9.61;59.86;99419.84;5092465;28;20406;-51
2022/01/02 07:01:05;;;;;;;6.72;4.72;;;;;;;9.60;59.99;99424.28;5093744;28;20078;-50
2022/01/02 07:03:33;;;;;;;5.95;4.05;;;;;;;9.58;59.34;99435.94;5092438;28;20102;-50
2022/01/02 07:06:00;;;;;;;6.50;3.97;;;;;;;9.47;60.13;99441.59;5093542;28;20020;-50
2022/01/02 07:08:28;;;;;;;4.93;4.03;;;;;;;9.43;60.30;99448.97;5093874;28;20020;-50
2022/01/02 07:10:54;;;;;;;7.97;4.40;;;;;;;9.45;59.95;99440.94;5093522;28;20085;-50
2022/01/02 07:13:20;;;;;;;6.85;5.10;;;;;;;9.74;61.23;99438.44;5092211;28;20022;-50
2022/01/02 07:15:46;;;;;;;6.03;4.50;;;;;;;9.77;60.05;99430.22;5093475;28;20111;-50
2022/01/02 07:18:11;;;;;;;8.02;3.72;;;;;;;9.62;59.26;99426.75;5091584;28;20023;-50
2022/01/02 07:20:37;;;;;;;4.85;4.20;;;;;;;9.52;59.90;99434.03;5092032;28;20032;-50
2022/01/02 07:23:03;;;;;;;7.43;4.32;;;;;;;9.53;60.22;99443.50;5092050;28;20073;-50
2022/01/02 07:25:28;;;;;;;11.55;7.97;;;;;;;9.57;59.55;99450.03;5091953;28;20482;-49
2022/01/02 07:27:54;;;;;;;12.02;8.13;;;;;;;9.54;60.12;99451.19;5093185;28;20104;-50
2022/01/02 07:30:20;;;;;;;7.18;4.47;;;;;;;9.54;59.91;99453.00;5091845;28;20457;-50
2022/01/02 07:32:46;;;;;;;5.38;3.38;;;;;;;9.55;59.83;99467.72;5091885;28;20401;-50
2022/01/02 07:35:11;;;;;;;6.22;3.13;;;;;;;9.54;59.74;99466.91;5093119;28;20020;-50
2022/01/02 07:37:37;;;;;;;5.43;3.53;;;;;;;9.58;59.74;99464.78;5091715;28;20128;-51
2022/01/02 07:40:05;;;;;;;4.47;3.50;;;;;;;9.60;59.77;99465.41;5092766;28;20048;-50
2022/01/02 07:42:31;;;;;;;8.75;5.45;;;;;;;9.64;59.82;99464.06;5092984;28;20493;-50
2022/01/02 07:44:58;;;;;;;7.72;4.97;;;;;;;9.72;59.67;99471.88;5092918;28;20023;-50
2022/01/02 07:47:24;;;;;;;3.92;3.10;;;;;;;9.78;59.01;99473.78;5092771;28;20435;-50
2022/01/02 07:49:49;;;;;;;4.88;3.78;;;;;;;9.74;58.83;99482.19;5092900;28;20016;-50
2022/01/02 07:52:15;;;;;;;5.50;3.13;;;;;;;9.62;59.16;99478.31;5091421;28;20082;-50
2022/01/02 07:54:41;;;;;;;8.13;5.20;;;;;;;9.51;59.86;99474.31;5091419;28;20024;-50
2022/01/02 07:57:07;;;;;;;4.93;3.55;;;;;;;9.50;60.25;99475.31;5091374;28;20032;-50
2022/01/02 07:59:33;;;;;;;6.65;5.30;;;;;;;9.55;60.19;99478.22;5091318;28;20382;-50
2022/01/02 08:01:58;;;;;;;3.33;2.80;;;;;;;9.54;59.61;99487.06;5091256;28;20031;-50
2022/01/02 08:04:24;;;;;;;4.55;3.20;;;;;;;9.52;59.75;99504.78;5091234;28;20020;-50
2022/01/02 08:06:50;;;;;;;4.30;2.95;;;;;;;9.48;60.01;99521.84;5091137;28;20028;-50
2022/01/02 08:09:15;;;;;;;5.70;3.45;;;;;;;9.50;60.25;99519.84;5092530;28;20016;-50
2022/01/02 08:11:41;;;;;;;5.75;3.92;;;;;;;9.75;60.30;99531.78;5091098;28;20024;-50
2022/01/02 08:14:07;;;;;;;3.92;2.63;;;;;;;10.14;59.24;99541.38;5091108;28;20028;-50
2022/01/02 08:16:34;;;;;;;11.93;5.03;;;;;;;10.41;58.60;99536.56;5091033;28;20413;-50
2022/01/02 08:19:00;;;;;;;6.63;4.68;;;;;;;10.67;57.24;99537.97;5092333;28;20017;-50
2022/01/02 08:21:26;;;;;;;8.68;4.97;;;;;;;10.80;56.79;99546.03;5092300;28;20471;-50
2022/01/02 08:23:51;;;;;;;14.27;5.72;;;;;;;10.90;56.93;99551.00;5092681;28;20078;-50
2022/01/02 08:26:17;;;;;;;7.88;5.72;;;;;;;11.11;56.12;99566.06;5090827;28;20119;-50
2022/01/02 08:28:43;;;;;;;6.78;4.05;;;;;;;11.25;56.10;99572.28;5091371;28;20047;-50
2022/01/02 08:31:09;;;;;;;6.15;4.38;;;;;;;11.44;55.39;99584.88;5092106;28;20157;-50
2022/01/02 08:33:34;;;;;;;49.15;28.55;;;;;;;11.69;55.34;99584.53;5090796;28;20404;-50
2022/01/02 08:36:00;;;;;;;11.93;10.27;;;;;;;11.97;54.48;99574.97;5090741;28;20035;-50
2022/01/02 08:38:28;;;;;;;38.63;32.88;;;;;;;12.40;54.22;99571.50;5090712;28;20027;-50
2022/01/02 08:40:53;;;;;;;49.45;34.83;;;;;;;12.75;52.74;99585.53;5091761;28;20524;-50
2022/01/02 08:43:19;;;;;;;6.30;5.38;;;;;;;12.72;51.81;99575.41;5091945;28;20028;-51
2022/01/02 08:45:45;;;;;;;7.85;5.75;;;;;;;12.43;52.10;99555.31;5090563;28;20026;-50
2022/01/02 08:48:10;;;;;;;6.28;4.80;;;;;;;11.97;51.21;99550.47;5091792;28;20034;-51
2022/01/02 08:50:36;;;;;;;15.02;13.13;;;;;;;11.39;53.03;99555.72;5090571;28;20023;-50
2022/01/02 08:53:02;;;;;;;6.97;5.70;;;;;;;10.87;55.06;99549.56;5090605;28;20375;-50
2022/01/02 08:55:28;;;;;;;3.72;3.20;;;;;;;10.65;56.41;99543.41;5090552;28;20405;-50
2022/01/02 08:57:53;;;;;;;5.60;2.60;;;;;;;10.51;56.91;99539.75;5090501;28;20111;-50
2022/01/02 09:00:19;;;;;;;8.63;6.90;;;;;;;10.34;57.81;99549.59;5091807;28;20097;-51
2022/01/02 09:02:45;;;;;;;6.18;4.00;;;;;;;10.44;58.52;99535.41;5090489;28;20054;-50
2022/01/02 09:05:10;;;;;;;4.75;3.65;;;;;;;10.55;57.99;99535.78;5090464;28;20016;-50
2022/01/02 09:07:36;;;;;;;5.38;3.08;;;;;;;10.61;57.90;99536.06;5090357;28;20020;-50
2022/01/02 09:10:03;;;;;;;7.80;3.67;;;;;;;10.62;58.64;99564.75;5091711;28;20016;-50
2022/01/02 09:12:29;;;;;;;21.90;15.63;;;;;;;10.90;59.36;99591.22;5091741;28;20020;-50
2022/01/02 09:14:55;;;;;;;17.60;10.88;;;;;;;11.58;57.87;99599.78;5090347;28;20039;-50
2022/01/02 09:17:21;;;;;;;9.13;5.53;;;;;;;12.37;56.26;99563.97;5091630;28;20492;-50
2022/01/02 09:19:48;;;;;;;6.57;4.40;;;;;;;12.29;53.04;99564.13;5090324;28;20020;-50
2022/01/02 09:22:15;;;;;;;7.35;4.95;;;;;;;11.89;53.73;99558.47;5090547;28;20405;-50
2022/01/02 09:24:41;;;;;;;6.70;3.88;;;;;;;11.52;54.69;99560.28;5090269;28;20024;-50
2022/01/02 09:27:06;;;;;;;5.55;4.97;;;;;;;11.22;56.04;99562.97;5091450;28;20031;-50
2022/01/02 09:29:32;;;;;;;5.72;4.00;;;;;;;11.65;55.86;99564.88;5090248;28;20024;-50
2022/01/02 09:31:59;;;;;;;6.03;4.45;;;;;;;12.30;53.48;99545.50;5090213;28;20440;-50
2022/01/02 09:34:24;;;;;;;6.55;3.65;;;;;;;12.24;54.28;99574.41;5090178;28;20394;-51
2022/01/02 09:36:50;;;;;;;5.28;3.30;;;;;;;12.70;54.02;99573.97;5090102;28;20032;-50
2022/01/02 09:39:16;;;;;;;12.05;9.40;;;;;;;12.89;54.10;99583.81;5091234;28;20016;-51
2022/01/02 09:41:42;;;;;;;8.25;6.63;;;;;;;13.15;51.60;99611.34;5093215;28;20032;-50
2022/01/02 09:44:08;;;;;;;14.57;11.98;;;;;;;13.35;55.01;99593.81;5095258;28;20071;-50
2022/01/02 09:46:34;;;;;;;7.30;3.65;;;;;;;13.51;50.16;99583.97;5093797;28;20028;-51
2022/01/02 09:49:01;;;;;;;6.88;5.88;;;;;;;13.70;50.68;99592.94;5095130;28;20059;-50
2022/01/02 09:51:27;;;;;;;12.57;4.93;;;;;;;14.01;50.53;99602.19;5093777;28;20017;-50
2022/01/02 09:53:54;;;;;;;5.68;3.45;;;;;;;14.45;49.79;99622.75;5093785;28;20020;-50
2022/01/02 09:56:21;;;;;;;6.80;3.35;;;;;;;14.91;48.93;99634.34;5093710;28;20076;-50
2022/01/02 09:58:47;;;;;;;6.10;3.03;;;;;;;15.74;47.23;99642.50;5094970;28;20035;-51
2022/01/02 10:01:21;;;;;;;5.10;3.65;;;;;;;16.62;45.25;99638.31;5093628;28;20016;-51
2022/01/02 10:03:53;;;;;;;7.15;4.28;;;;;;;17.17;43.09;99619.88;5093622;28;20485;-51
2022/01/02 10:06:20;;;;;;;7.93;3.78;;;;;;;17.17;42.95;99622.50;5094834;28;20028;-51
2022/01/02 10:08:46;;;;;;;4.40;2.50;;;;;;;17.05;42.08;99618.16;5093504;28;20105;-51
2022/01/02 10:11:21;;;;;;;5.72;2.58;;;;;;;16.75;42.63;99609.03;5094791;28;20027;-51
2022/01/02 10:13:51;;;;;;;8.98;2.75;;;;;;;16.66;42.80;99605.03;5094795;28;20046;-50
2022/01/02 10:16:29;;;;;;;8.15;4.43;;;;;;;16.41;44.71;99580.38;5093668;28;20035;-49
2022/01/02 10:18:56;;;;;;;5.40;3.33;;;;;;;16.26;45.33;99570.91;5093365;28;20413;-51
2022/01/02 10:21:28;;;;;;;4.45;3.65;;;;;;;16.01;45.71;99578.81;5094608;28;20027;-50
2022/01/02 10:24:12;;;;;;;6.88;3.38;;;;;;;15.82;45.45;99567.34;5094596;28;20032;-51
2022/01/02 10:26:39;;;;;;;5.95;3.67;;;;;;;15.67;45.72;99558.84;5093133;28;20032;-50
2022/01/02 10:29:15;;;;;;;3.47;2.60;;;;;;;15.47;45.66;99567.66;5094476;28;20401;-51
2022/01/02 10:31:41;;;;;;;3.80;2.90;;;;;;;15.66;45.66;99575.75;5093356;28;20100;-51
2022/01/02 10:34:07;;;;;;;6.72;4.43;;;;;;;16.42;45.88;99574.03;5093011;28;20031;-51
2022/01/02 10:36:42;;;;;;;9.32;4.90;;;;;;;17.11;45.35;99561.59;5092959;28;20166;-51
2022/01/02 10:39:09;;;;;;;6.68;4.68;;;;;;;17.55;44.06;99570.25;5094291;28;20035;-51
2022/01/02 10:41:46;;;;;;;5.18;4.20;;;;;;;17.74;43.90;99558.53;5092804;28;20032;-50
2022/01/02 10:44:33;;;;;;;9.68;4.97;;;;;;;18.05;43.55;99543.44;5093184;28;20422;-51
2022/01/02 10:47:09;;;;;;;8.77;4.80;;;;;;;18.35;42.85;99548.66;5093870;28;20119;-51
2022/01/02 10:49:54;;;;;;;6.78;4.65;;;;;;;18.69;42.54;99548.91;5094058;28;20058;-51
2022/01/02 10:52:22;;;;;;;6.90;4.35;;;;;;;18.92;41.87;99542.78;5093071;28;20020;-51
2022/01/02 10:54:49;;;;;;;5.20;4.47;;;;;;;18.51;41.78;99539.22;5093944;28;20034;-51
2022/01/02 10:57:15;;;;;;;5.25;4.30;;;;;;;18.25;42.59;99529.00;5093892;28;20028;-51
2022/01/02 10:59:43;;;;;;;6.18;4.93;;;;;;;18.35;42.68;99539.88;5093939;28;20481;-51
2022/01/02 11:02:12;;;;;;;13.38;6.15;;;;;;;18.41;42.49;99540.81;5093804;28;20031;-51
2022/01/02 11:04:59;;;;;;;9.63;5.28;;;;;;;18.22;42.62;99546.22;5092420;28;20032;-51
2022/01/02 11:07:26;;;;;;;8.00;5.13;;;;;;;18.01;43.28;99562.69;5093666;28;20024;-51
2022/01/02 11:09:54;;;;;;;10.90;4.80;;;;;;;18.22;43.24;99570.13;5092327;28;20042;-50
2022/01/02 11:12:21;;;;;;;7.05;4.68;;;;;;;18.16;42.98;99571.84;5092289;28;20438;-51
2022/01/02 11:14:49;;;;;;;10.07;5.80;;;;;;;17.91;43.74;99563.25;5092200;28;20035;-51
2022/01/02 11:17:16;;;;;;;6.53;4.88;;;;;;;17.81;43.86;99557.63;5092114;28;20039;-51
2022/01/02 11:19:42;;;;;;;7.70;4.90;;;;;;;17.66;44.05;99560.69;5092109;28;20032;-51
2022/01/02 11:22:13;;;;;;;8.18;4.88;;;;;;;17.67;44.06;99547.22;5091988;28;20020;-51
2022/01/02 11:24:47;;;;;;;9.60;4.90;;;;;;;17.57;43.88;99538.97;5092057;28;20074;-51
2022/01/02 11:27:23;;;;;;;7.03;5.00;;;;;;;17.41;44.17;99531.66;5093321;28;20496;-51
2022/01/02 11:29:50;;;;;;;6.75;4.65;;;;;;;17.07;44.43;99529.38;5093266;28;20024;-51
2022/01/02 11:32:27;;;;;;;7.88;5.07;;;;;;;16.91;44.90;99522.84;5091851;28;20024;-51
2022/01/02 11:34:53;;;;;;;6.85;4.93;;;;;;;16.70;44.86;99533.81;5091926;28;20039;-51
2022/01/02 11:37:24;;;;;;;9.25;5.20;;;;;;;16.35;45.36;99527.22;5092290;28;20062;-51